| |
Missouri Department of Transportation

Social Media Facebook Twitter Flickr Instagram YouTube RSS

Current AWOS Information

 
AWOS Home - General Info for all Airports
Current AWOS for all Airports - Current METAR for all Airports
Glossary - Disclaimer - Other Links


MOBERLY--OMAR N BRADELY--KMBY
 
Recent AWOS History
 
09/25/16     08:52 AM CDT      13:52 GMT
Air Temperature 76°F (24°C ) 1st Cloud Layer Clear
Dew Point 67°F (19°C) 2nd Cloud Layer  
Barometric Pressure 30.06 in Hg. 3rd Cloud Layer  
Wind Speed 7 mph (6 knots) Density Altitude 2000 feet
Peak Wind Gusts   Variable Wind Directions  
Wind Direction Quadrant(260°) Variable Visibility  
Visibility 10 statute miles  

Thunderstorm and Precipitation Identification: 
Thunderstorm Remarks: 

Current METAR Record: METAR KMBY 251359Z AUTO 26009KT 10SM CLR 25/19 A3006 RMK AO2

 

 

 

About Us
How Do I...
Contact Us
Missouri Department of Transportation
Central Office
105 W. Capitol Avenue
Jefferson City, MO 65102
1-888-ASK-MODOT (275-6636)
1-866-831-6277 (Motor Carrier Services)
Driver's License Offices
horz_bar
| | |
Missouri State Government
© 2013 Missouri Department of Transportation. All Rights Reserved.   Privacy Policy.
 
 
 
 
RSS FeedYoutubeBlogFlickrTwitter Facebook